sensor_id;sensor_type;location;lat;lon;timestamp;P1;durP1;ratioP1;P2;durP2;ratioP2
5277;SDS011;2662;51.194;6.614;2023-08-20T00:02:23;12.90;;;6.67;;
5277;SDS011;2662;51.194;6.614;2023-08-20T00:04:52;12.17;;;6.80;;
5277;SDS011;2662;51.194;6.614;2023-08-20T00:07:22;14.97;;;6.90;;
5277;SDS011;2662;51.194;6.614;2023-08-20T00:09:50;13.77;;;6.23;;
5277;SDS011;2662;51.194;6.614;2023-08-20T00:12:16;12.60;;;7.33;;
5277;SDS011;2662;51.194;6.614;2023-08-20T00:14:53;15.30;;;6.83;;
5277;SDS011;2662;51.194;6.614;2023-08-20T00:17:22;10.00;;;6.60;;
5277;SDS011;2662;51.194;6.614;2023-08-20T00:19:53;23.13;;;7.20;;
5277;SDS011;2662;51.194;6.614;2023-08-20T00:22:21;18.03;;;7.57;;
5277;SDS011;2662;51.194;6.614;2023-08-20T00:24:49;16.50;;;6.43;;
5277;SDS011;2662;51.194;6.614;2023-08-20T00:27:16;12.53;;;5.90;;
5277;SDS011;2662;51.194;6.614;2023-08-20T00:29:43;12.00;;;6.10;;
5277;SDS011;2662;51.194;6.614;2023-08-20T00:32:09;11.90;;;6.37;;
5277;SDS011;2662;51.194;6.614;2023-08-20T00:34:36;18.17;;;6.23;;
5277;SDS011;2662;51.194;6.614;2023-08-20T00:37:04;9.13;;;6.00;;
5277;SDS011;2662;51.194;6.614;2023-08-20T00:39:31;13.57;;;6.70;;
5277;SDS011;2662;51.194;6.614;2023-08-20T00:41:58;13.17;;;6.03;;
5277;SDS011;2662;51.194;6.614;2023-08-20T00:44:24;11.00;;;6.57;;
5277;SDS011;2662;51.194;6.614;2023-08-20T00:46:51;9.80;;;6.03;;
5277;SDS011;2662;51.194;6.614;2023-08-20T00:49:19;16.50;;;6.87;;
5277;SDS011;2662;51.194;6.614;2023-08-20T00:51:46;13.13;;;5.90;;
5277;SDS011;2662;51.194;6.614;2023-08-20T00:54:15;12.03;;;6.30;;
5277;SDS011;2662;51.194;6.614;2023-08-20T00:56:42;15.43;;;7.77;;
5277;SDS011;2662;51.194;6.614;2023-08-20T00:59:08;17.60;;;6.50;;
5277;SDS011;2662;51.194;6.614;2023-08-20T01:01:36;18.03;;;7.57;;
5277;SDS011;2662;51.194;6.614;2023-08-20T01:04:03;12.40;;;6.30;;
5277;SDS011;2662;51.194;6.614;2023-08-20T01:06:42;13.90;;;5.80;;
5277;SDS011;2662;51.194;6.614;2023-08-20T01:09:21;12.90;;;6.23;;
5277;SDS011;2662;51.194;6.614;2023-08-20T01:11:57;9.13;;;5.97;;
5277;SDS011;2662;51.194;6.614;2023-08-20T01:14:26;12.40;;;6.40;;
5277;SDS011;2662;51.194;6.614;2023-08-20T01:16:53;15.93;;;6.97;;
5277;SDS011;2662;51.194;6.614;2023-08-20T01:19:20;20.00;;;8.63;;
5277;SDS011;2662;51.194;6.614;2023-08-20T01:21:52;16.50;;;7.53;;
5277;SDS011;2662;51.194;6.614;2023-08-20T01:24:35;17.60;;;8.50;;
5277;SDS011;2662;51.194;6.614;2023-08-20T01:27:17;13.73;;;7.70;;
5277;SDS011;2662;51.194;6.614;2023-08-20T01:29:54;17.33;;;7.90;;
5277;SDS011;2662;51.194;6.614;2023-08-20T01:32:21;11.97;;;7.97;;
5277;SDS011;2662;51.194;6.614;2023-08-20T01:34:49;13.50;;;8.10;;
5277;SDS011;2662;51.194;6.614;2023-08-20T01:37:18;15.63;;;7.37;;
5277;SDS011;2662;51.194;6.614;2023-08-20T01:39:44;12.53;;;7.83;;
5277;SDS011;2662;51.194;6.614;2023-08-20T01:42:11;14.57;;;7.70;;
5277;SDS011;2662;51.194;6.614;2023-08-20T01:44:38;17.20;;;8.30;;
5277;SDS011;2662;51.194;6.614;2023-08-20T01:47:06;13.67;;;7.83;;
5277;SDS011;2662;51.194;6.614;2023-08-20T01:49:33;14.47;;;8.13;;
5277;SDS011;2662;51.194;6.614;2023-08-20T01:51:59;13.43;;;8.67;;
5277;SDS011;2662;51.194;6.614;2023-08-20T01:54:26;16.73;;;9.07;;
5277;SDS011;2662;51.194;6.614;2023-08-20T01:56:53;17.60;;;8.30;;
5277;SDS011;2662;51.194;6.614;2023-08-20T01:59:21;15.00;;;7.63;;
5277;SDS011;2662;51.194;6.614;2023-08-20T02:01:48;13.77;;;7.70;;
5277;SDS011;2662;51.194;6.614;2023-08-20T02:04:17;17.27;;;7.93;;
5277;SDS011;2662;51.194;6.614;2023-08-20T02:06:44;16.70;;;8.27;;
5277;SDS011;2662;51.194;6.614;2023-08-20T02:09:11;25.00;;;8.77;;
5277;SDS011;2662;51.194;6.614;2023-08-20T02:11:37;19.97;;;9.70;;
5277;SDS011;2662;51.194;6.614;2023-08-20T02:14:04;17.27;;;9.53;;
5277;SDS011;2662;51.194;6.614;2023-08-20T02:16:31;17.10;;;9.00;;
5277;SDS011;2662;51.194;6.614;2023-08-20T02:18:58;14.60;;;8.50;;
5277;SDS011;2662;51.194;6.614;2023-08-20T02:21:27;17.93;;;8.57;;
5277;SDS011;2662;51.194;6.614;2023-08-20T02:23:53;15.03;;;8.53;;
5277;SDS011;2662;51.194;6.614;2023-08-20T02:26:20;15.47;;;8.83;;
5277;SDS011;2662;51.194;6.614;2023-08-20T02:28:47;16.50;;;8.60;;
5277;SDS011;2662;51.194;6.614;2023-08-20T02:31:14;14.80;;;9.53;;
5277;SDS011;2662;51.194;6.614;2023-08-20T02:33:41;17.57;;;8.87;;
5277;SDS011;2662;51.194;6.614;2023-08-20T02:36:07;17.93;;;9.30;;
5277;SDS011;2662;51.194;6.614;2023-08-20T02:38:35;15.70;;;9.77;;
5277;SDS011;2662;51.194;6.614;2023-08-20T02:41:02;16.17;;;10.37;;
5277;SDS011;2662;51.194;6.614;2023-08-20T02:43:29;17.53;;;9.27;;
5277;SDS011;2662;51.194;6.614;2023-08-20T02:45:56;27.63;;;10.63;;
5277;SDS011;2662;51.194;6.614;2023-08-20T02:48:22;23.13;;;11.30;;
5277;SDS011;2662;51.194;6.614;2023-08-20T02:50:52;20.37;;;11.77;;
5277;SDS011;2662;51.194;6.614;2023-08-20T02:53:18;19.90;;;11.90;;
5277;SDS011;2662;51.194;6.614;2023-08-20T02:55:46;19.97;;;10.83;;
5277;SDS011;2662;51.194;6.614;2023-08-20T02:58:13;18.93;;;11.20;;
5277;SDS011;2662;51.194;6.614;2023-08-20T03:00:41;18.27;;;11.23;;
5277;SDS011;2662;51.194;6.614;2023-08-20T03:03:08;16.33;;;10.80;;
5277;SDS011;2662;51.194;6.614;2023-08-20T03:05:35;18.10;;;11.07;;
5277;SDS011;2662;51.194;6.614;2023-08-20T03:08:02;26.30;;;11.87;;
5277;SDS011;2662;51.194;6.614;2023-08-20T03:10:29;23.47;;;11.60;;
5277;SDS011;2662;51.194;6.614;2023-08-20T03:12:58;31.03;;;12.80;;
5277;SDS011;2662;51.194;6.614;2023-08-20T03:15:25;25.43;;;11.80;;
5277;SDS011;2662;51.194;6.614;2023-08-20T03:17:52;30.33;;;12.00;;
5277;SDS011;2662;51.194;6.614;2023-08-20T03:20:19;21.60;;;12.20;;
5277;SDS011;2662;51.194;6.614;2023-08-20T03:22:46;22.23;;;12.10;;
5277;SDS011;2662;51.194;6.614;2023-08-20T03:25:13;20.57;;;12.20;;
5277;SDS011;2662;51.194;6.614;2023-08-20T03:27:39;21.50;;;11.90;;
5277;SDS011;2662;51.194;6.614;2023-08-20T03:30:09;24.17;;;11.60;;
5277;SDS011;2662;51.194;6.614;2023-08-20T03:32:36;16.07;;;11.63;;
5277;SDS011;2662;51.194;6.614;2023-08-20T03:35:03;20.73;;;12.43;;
5277;SDS011;2662;51.194;6.614;2023-08-20T03:37:31;15.30;;;9.53;;
5277;SDS011;2662;51.194;6.614;2023-08-20T03:39:58;26.03;;;13.10;;
5277;SDS011;2662;51.194;6.614;2023-08-20T03:42:24;16.40;;;11.23;;
5277;SDS011;2662;51.194;6.614;2023-08-20T03:44:51;34.07;;;13.10;;
5277;SDS011;2662;51.194;6.614;2023-08-20T03:47:19;20.80;;;12.63;;
5277;SDS011;2662;51.194;6.614;2023-08-20T03:49:46;28.63;;;11.60;;
5277;SDS011;2662;51.194;6.614;2023-08-20T03:52:13;30.40;;;11.60;;
5277;SDS011;2662;51.194;6.614;2023-08-20T03:54:40;23.07;;;11.27;;
5277;SDS011;2662;51.194;6.614;2023-08-20T03:57:07;17.13;;;11.90;;
5277;SDS011;2662;51.194;6.614;2023-08-20T03:59:33;32.67;;;13.63;;
5277;SDS011;2662;51.194;6.614;2023-08-20T04:02:00;17.87;;;10.30;;
5277;SDS011;2662;51.194;6.614;2023-08-20T04:04:30;28.37;;;11.87;;
5277;SDS011;2662;51.194;6.614;2023-08-20T04:06:57;20.77;;;11.90;;
5277;SDS011;2662;51.194;6.614;2023-08-20T04:09:24;25.13;;;11.97;;
5277;SDS011;2662;51.194;6.614;2023-08-20T04:11:50;23.20;;;12.20;;
5277;SDS011;2662;51.194;6.614;2023-08-20T04:14:17;25.50;;;12.70;;
5277;SDS011;2662;51.194;6.614;2023-08-20T04:16:44;40.83;;;11.57;;
5277;SDS011;2662;51.194;6.614;2023-08-20T04:19:11;21.47;;;11.90;;
5277;SDS011;2662;51.194;6.614;2023-08-20T04:21:39;16.50;;;11.13;;
5277;SDS011;2662;51.194;6.614;2023-08-20T04:24:06;17.83;;;10.60;;
5277;SDS011;2662;51.194;6.614;2023-08-20T04:26:32;31.97;;;11.13;;
5277;SDS011;2662;51.194;6.614;2023-08-20T04:28:59;20.17;;;10.80;;
5277;SDS011;2662;51.194;6.614;2023-08-20T04:31:26;21.43;;;11.03;;
5277;SDS011;2662;51.194;6.614;2023-08-20T04:33:53;21.90;;;12.40;;
5277;SDS011;2662;51.194;6.614;2023-08-20T04:36:20;22.70;;;11.40;;
5277;SDS011;2662;51.194;6.614;2023-08-20T04:38:48;19.70;;;10.97;;
5277;SDS011;2662;51.194;6.614;2023-08-20T04:41:14;22.33;;;11.00;;
5277;SDS011;2662;51.194;6.614;2023-08-20T04:43:41;21.70;;;10.73;;
5277;SDS011;2662;51.194;6.614;2023-08-20T04:46:08;21.67;;;11.67;;
5277;SDS011;2662;51.194;6.614;2023-08-20T04:48:34;23.27;;;12.33;;
5277;SDS011;2662;51.194;6.614;2023-08-20T04:51:01;20.83;;;11.50;;
5277;SDS011;2662;51.194;6.614;2023-08-20T04:53:28;27.87;;;12.73;;
5277;SDS011;2662;51.194;6.614;2023-08-20T04:55:57;23.33;;;13.10;;
5277;SDS011;2662;51.194;6.614;2023-08-20T04:58:24;37.93;;;13.33;;
5277;SDS011;2662;51.194;6.614;2023-08-20T05:00:51;19.33;;;12.30;;
5277;SDS011;2662;51.194;6.614;2023-08-20T05:03:17;24.63;;;11.63;;
5277;SDS011;2662;51.194;6.614;2023-08-20T05:05:48;30.30;;;12.90;;
5277;SDS011;2662;51.194;6.614;2023-08-20T05:08:15;23.87;;;11.97;;
5277;SDS011;2662;51.194;6.614;2023-08-20T05:10:42;23.57;;;12.47;;
5277;SDS011;2662;51.194;6.614;2023-08-20T05:13:10;25.17;;;13.27;;
5277;SDS011;2662;51.194;6.614;2023-08-20T05:15:37;21.70;;;12.60;;
5277;SDS011;2662;51.194;6.614;2023-08-20T05:18:04;20.77;;;10.70;;
5277;SDS011;2662;51.194;6.614;2023-08-20T05:20:30;20.40;;;11.80;;
5277;SDS011;2662;51.194;6.614;2023-08-20T05:22:57;32.20;;;11.43;;
5277;SDS011;2662;51.194;6.614;2023-08-20T05:25:24;21.93;;;12.00;;
5277;SDS011;2662;51.194;6.614;2023-08-20T05:27:51;17.83;;;11.30;;
5277;SDS011;2662;51.194;6.614;2023-08-20T05:30:19;24.10;;;12.13;;
5277;SDS011;2662;51.194;6.614;2023-08-20T05:32:46;21.47;;;12.20;;
5277;SDS011;2662;51.194;6.614;2023-08-20T05:35:12;21.13;;;12.20;;
5277;SDS011;2662;51.194;6.614;2023-08-20T05:37:39;25.10;;;12.73;;
5277;SDS011;2662;51.194;6.614;2023-08-20T05:40:06;17.80;;;11.30;;
5277;SDS011;2662;51.194;6.614;2023-08-20T05:42:34;19.03;;;11.80;;
5277;SDS011;2662;51.194;6.614;2023-08-20T05:45:01;24.50;;;12.27;;
5277;SDS011;2662;51.194;6.614;2023-08-20T05:47:29;21.40;;;12.90;;
5277;SDS011;2662;51.194;6.614;2023-08-20T05:49:56;20.03;;;12.70;;
5277;SDS011;2662;51.194;6.614;2023-08-20T05:52:23;24.23;;;12.47;;
5277;SDS011;2662;51.194;6.614;2023-08-20T05:54:50;22.60;;;11.40;;
5277;SDS011;2662;51.194;6.614;2023-08-20T05:57:16;23.27;;;11.67;;
5277;SDS011;2662;51.194;6.614;2023-08-20T05:59:43;18.90;;;10.33;;
5277;SDS011;2662;51.194;6.614;2023-08-20T06:02:10;13.87;;;9.37;;
5277;SDS011;2662;51.194;6.614;2023-08-20T06:04:42;17.17;;;9.43;;
5277;SDS011;2662;51.194;6.614;2023-08-20T06:07:09;15.97;;;8.70;;
5277;SDS011;2662;51.194;6.614;2023-08-20T06:09:39;11.50;;;8.70;;
5277;SDS011;2662;51.194;6.614;2023-08-20T06:12:06;18.37;;;9.20;;
5277;SDS011;2662;51.194;6.614;2023-08-20T06:14:33;15.33;;;8.63;;
5277;SDS011;2662;51.194;6.614;2023-08-20T06:16:59;11.40;;;7.97;;
5277;SDS011;2662;51.194;6.614;2023-08-20T06:19:27;12.87;;;8.07;;
5277;SDS011;2662;51.194;6.614;2023-08-20T06:21:55;11.37;;;7.90;;
5277;SDS011;2662;51.194;6.614;2023-08-20T06:24:22;12.57;;;8.63;;
5277;SDS011;2662;51.194;6.614;2023-08-20T06:26:49;14.07;;;7.97;;
5277;SDS011;2662;51.194;6.614;2023-08-20T06:29:15;15.17;;;8.20;;
5277;SDS011;2662;51.194;6.614;2023-08-20T06:31:42;10.30;;;8.10;;
5277;SDS011;2662;51.194;6.614;2023-08-20T06:34:09;11.97;;;7.57;;
5277;SDS011;2662;51.194;6.614;2023-08-20T06:36:36;9.20;;;7.30;;
5277;SDS011;2662;51.194;6.614;2023-08-20T06:39:04;16.60;;;8.47;;
5277;SDS011;2662;51.194;6.614;2023-08-20T06:41:31;9.67;;;7.53;;
5277;SDS011;2662;51.194;6.614;2023-08-20T06:43:58;11.77;;;8.07;;
5277;SDS011;2662;51.194;6.614;2023-08-20T06:46:24;16.80;;;8.67;;
5277;SDS011;2662;51.194;6.614;2023-08-20T06:48:51;10.13;;;7.60;;
5277;SDS011;2662;51.194;6.614;2023-08-20T06:51:19;11.00;;;8.00;;
5277;SDS011;2662;51.194;6.614;2023-08-20T06:53:46;12.30;;;7.67;;
5277;SDS011;2662;51.194;6.614;2023-08-20T06:56:14;10.27;;;7.80;;
5277;SDS011;2662;51.194;6.614;2023-08-20T06:58:44;16.53;;;7.30;;
5277;SDS011;2662;51.194;6.614;2023-08-20T07:01:12;11.80;;;7.33;;
5277;SDS011;2662;51.194;6.614;2023-08-20T07:03:39;12.20;;;8.17;;
5277;SDS011;2662;51.194;6.614;2023-08-20T07:06:07;13.07;;;7.80;;
5277;SDS011;2662;51.194;6.614;2023-08-20T07:08:35;10.90;;;7.67;;
5277;SDS011;2662;51.194;6.614;2023-08-20T07:11:03;12.57;;;8.70;;
5277;SDS011;2662;51.194;6.614;2023-08-20T07:13:31;10.50;;;9.40;;
5277;SDS011;2662;51.194;6.614;2023-08-20T07:15:58;11.70;;;7.93;;
5277;SDS011;2662;51.194;6.614;2023-08-20T07:18:25;11.57;;;8.30;;
5277;SDS011;2662;51.194;6.614;2023-08-20T07:20:52;14.23;;;8.60;;
5277;SDS011;2662;51.194;6.614;2023-08-20T07:23:19;11.33;;;8.53;;
5277;SDS011;2662;51.194;6.614;2023-08-20T07:25:45;14.47;;;8.03;;
5277;SDS011;2662;51.194;6.614;2023-08-20T07:28:13;12.37;;;7.63;;
5277;SDS011;2662;51.194;6.614;2023-08-20T07:30:47;10.77;;;8.00;;
5277;SDS011;2662;51.194;6.614;2023-08-20T07:33:14;15.03;;;7.33;;
5277;SDS011;2662;51.194;6.614;2023-08-20T07:35:41;16.03;;;8.13;;
5277;SDS011;2662;51.194;6.614;2023-08-20T07:38:07;12.60;;;8.03;;
5277;SDS011;2662;51.194;6.614;2023-08-20T07:40:34;11.70;;;8.10;;
5277;SDS011;2662;51.194;6.614;2023-08-20T07:43:01;13.83;;;8.20;;
5277;SDS011;2662;51.194;6.614;2023-08-20T07:45:27;10.27;;;8.30;;
5277;SDS011;2662;51.194;6.614;2023-08-20T07:47:56;12.10;;;7.80;;
5277;SDS011;2662;51.194;6.614;2023-08-20T07:50:22;11.60;;;8.40;;
5277;SDS011;2662;51.194;6.614;2023-08-20T07:52:49;13.60;;;8.33;;
5277;SDS011;2662;51.194;6.614;2023-08-20T07:55:16;10.93;;;8.17;;
5277;SDS011;2662;51.194;6.614;2023-08-20T07:57:43;13.47;;;9.13;;
5277;SDS011;2662;51.194;6.614;2023-08-20T08:00:10;10.90;;;8.77;;
5277;SDS011;2662;51.194;6.614;2023-08-20T08:02:38;14.40;;;8.57;;
5277;SDS011;2662;51.194;6.614;2023-08-20T08:05:07;12.93;;;8.87;;
5277;SDS011;2662;51.194;6.614;2023-08-20T08:07:34;12.43;;;8.03;;
5277;SDS011;2662;51.194;6.614;2023-08-20T08:10:01;13.67;;;9.20;;
5277;SDS011;2662;51.194;6.614;2023-08-20T08:12:27;13.97;;;8.73;;
5277;SDS011;2662;51.194;6.614;2023-08-20T08:14:54;15.43;;;10.60;;
5277;SDS011;2662;51.194;6.614;2023-08-20T08:17:21;21.60;;;10.47;;
5277;SDS011;2662;51.194;6.614;2023-08-20T08:19:47;14.07;;;10.90;;
5277;SDS011;2662;51.194;6.614;2023-08-20T08:22:15;18.60;;;10.63;;
5277;SDS011;2662;51.194;6.614;2023-08-20T08:24:42;11.83;;;10.10;;
5277;SDS011;2662;51.194;6.614;2023-08-20T08:27:09;17.60;;;10.13;;
5277;SDS011;2662;51.194;6.614;2023-08-20T08:29:36;12.83;;;9.70;;
5277;SDS011;2662;51.194;6.614;2023-08-20T08:32:03;12.33;;;8.80;;
5277;SDS011;2662;51.194;6.614;2023-08-20T08:34:30;15.90;;;10.10;;
5277;SDS011;2662;51.194;6.614;2023-08-20T08:36:56;14.90;;;9.70;;
5277;SDS011;2662;51.194;6.614;2023-08-20T08:39:24;12.93;;;9.37;;
5277;SDS011;2662;51.194;6.614;2023-08-20T08:41:51;14.50;;;8.93;;
5277;SDS011;2662;51.194;6.614;2023-08-20T08:44:27;13.53;;;8.60;;
5277;SDS011;2662;51.194;6.614;2023-08-20T08:46:54;12.90;;;9.73;;
5277;SDS011;2662;51.194;6.614;2023-08-20T08:49:21;13.17;;;9.33;;
5277;SDS011;2662;51.194;6.614;2023-08-20T08:51:47;13.50;;;9.80;;
5277;SDS011;2662;51.194;6.614;2023-08-20T08:54:14;9.97;;;8.70;;
5277;SDS011;2662;51.194;6.614;2023-08-20T08:56:43;11.33;;;8.30;;
5277;SDS011;2662;51.194;6.614;2023-08-20T08:59:09;10.93;;;8.67;;
5277;SDS011;2662;51.194;6.614;2023-08-20T09:01:38;12.37;;;9.13;;
5277;SDS011;2662;51.194;6.614;2023-08-20T09:04:05;12.50;;;9.53;;
5277;SDS011;2662;51.194;6.614;2023-08-20T09:06:43;12.20;;;9.00;;
5277;SDS011;2662;51.194;6.614;2023-08-20T09:09:11;12.13;;;8.10;;
5277;SDS011;2662;51.194;6.614;2023-08-20T09:11:38;11.50;;;8.60;;
5277;SDS011;2662;51.194;6.614;2023-08-20T09:14:06;10.40;;;7.17;;
5277;SDS011;2662;51.194;6.614;2023-08-20T09:16:33;13.00;;;7.83;;
5277;SDS011;2662;51.194;6.614;2023-08-20T09:19:00;10.10;;;7.43;;
5277;SDS011;2662;51.194;6.614;2023-08-20T09:21:27;10.90;;;8.10;;
5277;SDS011;2662;51.194;6.614;2023-08-20T09:23:54;12.30;;;8.30;;
5277;SDS011;2662;51.194;6.614;2023-08-20T09:26:22;12.37;;;7.47;;
5277;SDS011;2662;51.194;6.614;2023-08-20T09:28:49;9.80;;;7.03;;
5277;SDS011;2662;51.194;6.614;2023-08-20T09:31:17;10.07;;;7.30;;
5277;SDS011;2662;51.194;6.614;2023-08-20T09:33:48;12.70;;;7.90;;
5277;SDS011;2662;51.194;6.614;2023-08-20T09:36:16;9.60;;;6.60;;
5277;SDS011;2662;51.194;6.614;2023-08-20T09:38:43;12.90;;;7.43;;
5277;SDS011;2662;51.194;6.614;2023-08-20T09:41:10;10.40;;;6.47;;
5277;SDS011;2662;51.194;6.614;2023-08-20T09:43:38;8.17;;;5.80;;
5277;SDS011;2662;51.194;6.614;2023-08-20T09:46:07;11.63;;;6.47;;
5277;SDS011;2662;51.194;6.614;2023-08-20T09:48:39;6.47;;;5.90;;
5277;SDS011;2662;51.194;6.614;2023-08-20T09:51:10;8.77;;;7.83;;
5277;SDS011;2662;51.194;6.614;2023-08-20T09:53:39;8.70;;;6.20;;
5277;SDS011;2662;51.194;6.614;2023-08-20T09:56:14;8.37;;;7.20;;
5277;SDS011;2662;51.194;6.614;2023-08-20T09:58:47;9.63;;;6.17;;
5277;SDS011;2662;51.194;6.614;2023-08-20T10:01:14;8.57;;;5.20;;
5277;SDS011;2662;51.194;6.614;2023-08-20T10:03:43;9.10;;;5.10;;
5277;SDS011;2662;51.194;6.614;2023-08-20T10:06:09;8.23;;;4.57;;
5277;SDS011;2662;51.194;6.614;2023-08-20T10:08:37;11.10;;;5.77;;
5277;SDS011;2662;51.194;6.614;2023-08-20T10:14:25;6.60;;;4.90;;
5277;SDS011;2662;51.194;6.614;2023-08-20T10:16:52;6.30;;;4.83;;
5277;SDS011;2662;51.194;6.614;2023-08-20T10:19:20;5.70;;;5.00;;
5277;SDS011;2662;51.194;6.614;2023-08-20T10:21:51;6.50;;;4.43;;
5277;SDS011;2662;51.194;6.614;2023-08-20T10:24:18;9.10;;;5.00;;
5277;SDS011;2662;51.194;6.614;2023-08-20T10:26:46;18.73;;;6.40;;
5277;SDS011;2662;51.194;6.614;2023-08-20T10:32:03;10.50;;;6.60;;
5277;SDS011;2662;51.194;6.614;2023-08-20T10:34:33;8.80;;;7.40;;
5277;SDS011;2662;51.194;6.614;2023-08-20T10:37:01;10.33;;;6.17;;
5277;SDS011;2662;51.194;6.614;2023-08-20T10:39:29;13.73;;;7.50;;
5277;SDS011;2662;51.194;6.614;2023-08-20T10:42:08;9.67;;;7.53;;
5277;SDS011;2662;51.194;6.614;2023-08-20T10:47:23;12.77;;;7.17;;
5277;SDS011;2662;51.194;6.614;2023-08-20T10:49:51;12.00;;;7.30;;
5277;SDS011;2662;51.194;6.614;2023-08-20T10:52:18;17.00;;;7.70;;
5277;SDS011;2662;51.194;6.614;2023-08-20T10:54:45;12.03;;;7.50;;
5277;SDS011;2662;51.194;6.614;2023-08-20T10:57:15;8.77;;;6.83;;
5277;SDS011;2662;51.194;6.614;2023-08-20T10:59:42;9.03;;;6.70;;
5277;SDS011;2662;51.194;6.614;2023-08-20T11:02:12;7.60;;;6.80;;
5277;SDS011;2662;51.194;6.614;2023-08-20T11:04:41;8.57;;;7.67;;
5277;SDS011;2662;51.194;6.614;2023-08-20T11:07:10;9.50;;;6.50;;
5277;SDS011;2662;51.194;6.614;2023-08-20T11:09:37;10.00;;;6.20;;
5277;SDS011;2662;51.194;6.614;2023-08-20T11:12:05;8.67;;;7.33;;
5277;SDS011;2662;51.194;6.614;2023-08-20T11:14:32;13.17;;;7.90;;
5277;SDS011;2662;51.194;6.614;2023-08-20T11:17:01;10.30;;;8.10;;
5277;SDS011;2662;51.194;6.614;2023-08-20T11:19:27;11.47;;;7.50;;
5277;SDS011;2662;51.194;6.614;2023-08-20T11:21:54;9.73;;;8.40;;
5277;SDS011;2662;51.194;6.614;2023-08-20T11:24:22;11.43;;;7.63;;
5277;SDS011;2662;51.194;6.614;2023-08-20T11:26:49;10.20;;;7.63;;
5277;SDS011;2662;51.194;6.614;2023-08-20T11:29:16;9.97;;;6.70;;
5277;SDS011;2662;51.194;6.614;2023-08-20T11:31:45;7.70;;;6.63;;
5277;SDS011;2662;51.194;6.614;2023-08-20T11:34:12;9.07;;;7.33;;
5277;SDS011;2662;51.194;6.614;2023-08-20T11:36:39;7.67;;;6.83;;
5277;SDS011;2662;51.194;6.614;2023-08-20T11:39:06;9.40;;;6.50;;
5277;SDS011;2662;51.194;6.614;2023-08-20T11:41:36;9.73;;;5.97;;
5277;SDS011;2662;51.194;6.614;2023-08-20T11:44:04;8.07;;;7.37;;
5277;SDS011;2662;51.194;6.614;2023-08-20T11:46:31;8.87;;;7.13;;
5277;SDS011;2662;51.194;6.614;2023-08-20T11:48:58;19.30;;;9.07;;
5277;SDS011;2662;51.194;6.614;2023-08-20T11:51:26;13.23;;;8.33;;
5277;SDS011;2662;51.194;6.614;2023-08-20T11:53:53;12.13;;;8.83;;
5277;SDS011;2662;51.194;6.614;2023-08-20T11:56:19;13.50;;;9.03;;
5277;SDS011;2662;51.194;6.614;2023-08-20T11:58:50;18.17;;;9.67;;
5277;SDS011;2662;51.194;6.614;2023-08-20T12:01:17;20.43;;;8.20;;
5277;SDS011;2662;51.194;6.614;2023-08-20T12:03:44;9.30;;;8.30;;
5277;SDS011;2662;51.194;6.614;2023-08-20T12:06:18;9.80;;;8.13;;
5277;SDS011;2662;51.194;6.614;2023-08-20T12:08:47;9.63;;;7.57;;
5277;SDS011;2662;51.194;6.614;2023-08-20T12:11:14;9.10;;;8.10;;
5277;SDS011;2662;51.194;6.614;2023-08-20T12:13:41;8.40;;;7.30;;
5277;SDS011;2662;51.194;6.614;2023-08-20T12:16:09;9.93;;;7.50;;
5277;SDS011;2662;51.194;6.614;2023-08-20T12:18:36;10.40;;;8.50;;
5277;SDS011;2662;51.194;6.614;2023-08-20T12:21:02;9.97;;;8.60;;
5277;SDS011;2662;51.194;6.614;2023-08-20T12:23:29;8.63;;;6.87;;
5277;SDS011;2662;51.194;6.614;2023-08-20T12:25:56;7.63;;;6.90;;
5277;SDS011;2662;51.194;6.614;2023-08-20T12:28:23;9.97;;;6.67;;
5277;SDS011;2662;51.194;6.614;2023-08-20T12:30:51;7.93;;;6.60;;
5277;SDS011;2662;51.194;6.614;2023-08-20T12:33:19;7.70;;;6.93;;
5277;SDS011;2662;51.194;6.614;2023-08-20T12:35:46;9.80;;;6.60;;
5277;SDS011;2662;51.194;6.614;2023-08-20T12:38:14;9.47;;;7.03;;
5277;SDS011;2662;51.194;6.614;2023-08-20T12:40:41;8.50;;;6.43;;
5277;SDS011;2662;51.194;6.614;2023-08-20T12:43:08;9.30;;;6.40;;
5277;SDS011;2662;51.194;6.614;2023-08-20T12:45:43;8.83;;;7.10;;
5277;SDS011;2662;51.194;6.614;2023-08-20T12:48:10;9.57;;;6.80;;
5277;SDS011;2662;51.194;6.614;2023-08-20T12:50:38;6.37;;;5.87;;
5277;SDS011;2662;51.194;6.614;2023-08-20T12:53:05;13.73;;;7.03;;
5277;SDS011;2662;51.194;6.614;2023-08-20T12:55:32;9.97;;;7.37;;
5277;SDS011;2662;51.194;6.614;2023-08-20T12:57:59;9.47;;;7.20;;
5277;SDS011;2662;51.194;6.614;2023-08-20T13:00:26;11.43;;;7.10;;
5277;SDS011;2662;51.194;6.614;2023-08-20T13:02:53;7.20;;;5.80;;
5277;SDS011;2662;51.194;6.614;2023-08-20T13:05:21;10.67;;;6.60;;
5277;SDS011;2662;51.194;6.614;2023-08-20T13:07:50;7.37;;;5.83;;
5277;SDS011;2662;51.194;6.614;2023-08-20T13:10:18;15.53;;;6.07;;
5277;SDS011;2662;51.194;6.614;2023-08-20T13:12:47;7.50;;;5.13;;
5277;SDS011;2662;51.194;6.614;2023-08-20T13:15:15;12.93;;;5.73;;
5277;SDS011;2662;51.194;6.614;2023-08-20T13:17:43;9.30;;;5.53;;
5277;SDS011;2662;51.194;6.614;2023-08-20T13:20:11;7.73;;;5.17;;
5277;SDS011;2662;51.194;6.614;2023-08-20T13:22:38;10.80;;;5.13;;
5277;SDS011;2662;51.194;6.614;2023-08-20T13:25:06;15.60;;;5.10;;
5277;SDS011;2662;51.194;6.614;2023-08-20T13:27:34;9.13;;;5.27;;
5277;SDS011;2662;51.194;6.614;2023-08-20T13:30:00;8.10;;;5.13;;
5277;SDS011;2662;51.194;6.614;2023-08-20T13:32:28;8.43;;;5.47;;
5277;SDS011;2662;51.194;6.614;2023-08-20T13:34:54;9.17;;;3.90;;
5277;SDS011;2662;51.194;6.614;2023-08-20T13:37:21;7.60;;;4.67;;
5277;SDS011;2662;51.194;6.614;2023-08-20T13:39:48;8.73;;;4.83;;
5277;SDS011;2662;51.194;6.614;2023-08-20T13:42:16;9.70;;;4.97;;
5277;SDS011;2662;51.194;6.614;2023-08-20T13:44:43;10.80;;;4.60;;
5277;SDS011;2662;51.194;6.614;2023-08-20T13:47:09;11.70;;;4.70;;
5277;SDS011;2662;51.194;6.614;2023-08-20T13:49:36;11.27;;;5.40;;
5277;SDS011;2662;51.194;6.614;2023-08-20T13:52:03;7.43;;;4.90;;
5277;SDS011;2662;51.194;6.614;2023-08-20T13:54:30;7.83;;;4.60;;
5277;SDS011;2662;51.194;6.614;2023-08-20T13:56:57;8.67;;;4.70;;
5277;SDS011;2662;51.194;6.614;2023-08-20T13:59:25;7.30;;;4.90;;
5277;SDS011;2662;51.194;6.614;2023-08-20T14:01:52;7.93;;;4.57;;
5277;SDS011;2662;51.194;6.614;2023-08-20T14:04:19;4.87;;;4.37;;
5277;SDS011;2662;51.194;6.614;2023-08-20T14:06:45;4.53;;;3.70;;
5277;SDS011;2662;51.194;6.614;2023-08-20T14:09:13;8.73;;;4.20;;
5277;SDS011;2662;51.194;6.614;2023-08-20T14:11:42;6.27;;;3.77;;
5277;SDS011;2662;51.194;6.614;2023-08-20T14:14:09;8.20;;;4.27;;
5277;SDS011;2662;51.194;6.614;2023-08-20T14:16:37;8.87;;;4.43;;
5277;SDS011;2662;51.194;6.614;2023-08-20T14:19:04;8.23;;;4.17;;
5277;SDS011;2662;51.194;6.614;2023-08-20T14:21:31;8.43;;;4.33;;
5277;SDS011;2662;51.194;6.614;2023-08-20T14:23:57;7.63;;;3.90;;
5277;SDS011;2662;51.194;6.614;2023-08-20T14:26:24;7.93;;;4.47;;
5277;SDS011;2662;51.194;6.614;2023-08-20T14:28:51;8.70;;;4.30;;
5277;SDS011;2662;51.194;6.614;2023-08-20T14:31:18;7.83;;;4.10;;
5277;SDS011;2662;51.194;6.614;2023-08-20T14:33:46;8.03;;;4.37;;
5277;SDS011;2662;51.194;6.614;2023-08-20T14:36:13;18.97;;;4.40;;
5277;SDS011;2662;51.194;6.614;2023-08-20T14:38:40;4.67;;;3.43;;
5277;SDS011;2662;51.194;6.614;2023-08-20T14:41:07;9.60;;;3.70;;
5277;SDS011;2662;51.194;6.614;2023-08-20T14:43:33;6.87;;;3.70;;
5277;SDS011;2662;51.194;6.614;2023-08-20T14:46:00;7.97;;;3.50;;
5277;SDS011;2662;51.194;6.614;2023-08-20T14:48:27;6.10;;;3.27;;
5277;SDS011;2662;51.194;6.614;2023-08-20T14:50:55;10.67;;;3.40;;
5277;SDS011;2662;51.194;6.614;2023-08-20T14:53:22;9.20;;;3.70;;
5277;SDS011;2662;51.194;6.614;2023-08-20T14:55:49;9.23;;;3.63;;
5277;SDS011;2662;51.194;6.614;2023-08-20T14:58:16;5.40;;;3.53;;
5277;SDS011;2662;51.194;6.614;2023-08-20T15:00:42;6.30;;;3.30;;
5277;SDS011;2662;51.194;6.614;2023-08-20T15:03:09;8.57;;;3.90;;
5277;SDS011;2662;51.194;6.614;2023-08-20T15:05:36;5.37;;;3.50;;
5277;SDS011;2662;51.194;6.614;2023-08-20T15:08:04;5.10;;;3.20;;
5277;SDS011;2662;51.194;6.614;2023-08-20T15:10:31;7.33;;;3.67;;
5277;SDS011;2662;51.194;6.614;2023-08-20T15:12:57;8.87;;;3.30;;
5277;SDS011;2662;51.194;6.614;2023-08-20T15:15:24;5.73;;;2.90;;